Time;durP1;ratioP1;P1;durP2;ratioP2;P2;SDS_P1;SDS_P2;PMS_P1;PMS_P2;Temp;Humidity;BMP_temperature;BMP_pressure;BME280_temperature;BME280_humidity;BME280_pressure;Samples;Min_cycle;Max_cycle;Signal;HPM_P1;HPM_P2
2023/12/12 00:01:24;;;;;;;1.70;0.60;;;7.20;99.90;;;;;;5096895;28;20044;-58
2023/12/12 00:03:50;;;;;;;5.95;0.80;;;7.10;99.90;;;;;;5096328;28;20040;-58
2023/12/12 00:06:16;;;;;;;2.97;0.70;;;7.20;99.90;;;;;;5095548;28;20399;-58
2023/12/12 00:08:42;;;;;;;2.45;0.45;;;7.10;99.90;;;;;;5095015;28;20676;-57
2023/12/12 00:11:08;;;;;;;3.25;0.63;;;7.20;99.90;;;;;;5096530;28;20105;-57
2023/12/12 00:13:34;;;;;;;4.63;0.63;;;7.10;99.90;;;;;;5096265;28;20483;-57
2023/12/12 00:15:59;;;;;;;4.90;0.50;;;7.10;99.90;;;;;;5095006;28;20134;-57
2023/12/12 00:18:25;;;;;;;3.13;0.60;;;7.10;99.90;;;;;;5096044;28;20090;-57
2023/12/12 00:20:51;;;;;;;3.93;0.57;;;7.10;99.90;;;;;;5096165;28;20040;-58
2023/12/12 00:23:16;;;;;;;3.73;1.13;;;7.10;99.90;;;;;;5095930;28;20134;-57
2023/12/12 00:25:43;;;;;;;3.87;0.70;;;7.10;99.90;;;;;;5095636;28;20056;-57
2023/12/12 00:28:09;;;;;;;3.75;0.40;;;7.10;99.90;;;;;;5096197;28;20048;-57
2023/12/12 00:30:34;;;;;;;3.13;0.60;;;7.10;99.90;;;;;;5095765;28;20109;-58
2023/12/12 00:33:00;;;;;;;1.77;0.60;;;7.10;99.90;;;;;;5095947;28;20445;-57
2023/12/12 00:35:26;;;;;;;2.97;0.73;;;7.10;99.90;;;;;;5095790;28;20440;-57
2023/12/12 00:37:52;;;;;;;3.13;0.53;;;7.10;99.90;;;;;;5094604;28;20082;-57
2023/12/12 00:40:17;;;;;;;2.63;0.60;;;7.20;99.90;;;;;;5095447;28;20066;-57
2023/12/12 00:42:43;;;;;;;3.70;0.50;;;7.20;99.90;;;;;;5095915;28;20047;-57
2023/12/12 00:45:09;;;;;;;2.33;0.50;;;7.10;99.90;;;;;;5095372;28;20486;-57
2023/12/12 00:47:35;;;;;;;1.45;0.38;;;7.10;99.90;;;;;;5095610;28;20090;-57
2023/12/12 00:50:01;;;;;;;1.93;0.30;;;7.10;99.90;;;;;;5095409;28;20447;-58
2023/12/12 00:52:29;;;;;;;4.00;0.80;;;7.10;99.90;;;;;;5095395;28;20051;-57
2023/12/12 00:54:55;;;;;;;1.70;0.50;;;7.00;99.90;;;;;;5094161;28;20479;-57
2023/12/12 00:57:21;;;;;;;2.43;0.50;;;7.00;99.90;;;;;;5094286;28;20048;-57
2023/12/12 00:59:47;;;;;;;3.20;0.38;;;6.90;99.90;;;;;;5095314;28;20051;-58
2023/12/12 01:02:12;;;;;;;1.20;0.33;;;6.90;99.90;;;;;;5094668;28;20055;-58
2023/12/12 01:04:38;;;;;;;2.57;0.40;;;6.90;99.90;;;;;;5095378;28;20040;-57
2023/12/12 01:07:04;;;;;;;4.73;0.50;;;6.90;99.90;;;;;;5095049;28;20101;-57
2023/12/12 01:09:29;;;;;;;4.70;0.60;;;6.80;99.90;;;;;;5094853;28;20056;-58
2023/12/12 01:11:55;;;;;;;3.43;0.40;;;6.70;99.90;;;;;;5094204;28;20054;-58
2023/12/12 01:14:21;;;;;;;1.93;0.50;;;6.70;99.90;;;;;;5094085;28;20444;-57
2023/12/12 01:16:46;;;;;;;3.60;0.90;;;6.70;99.90;;;;;;5094939;28;20131;-57
2023/12/12 01:19:12;;;;;;;2.40;0.60;;;6.70;99.90;;;;;;5094935;28;20048;-57
2023/12/12 01:21:38;;;;;;;5.13;0.80;;;6.70;99.90;;;;;;5094823;28;20036;-57
2023/12/12 01:24:04;;;;;;;7.37;0.93;;;6.70;99.90;;;;;;5093716;28;20044;-57
2023/12/12 01:26:29;;;;;;;2.27;0.60;;;6.70;99.90;;;;;;5093616;28;20048;-57
2023/12/12 01:28:55;;;;;;;3.77;0.73;;;6.60;99.90;;;;;;5094826;28;20128;-57
2023/12/12 01:31:21;;;;;;;4.37;0.90;;;6.60;99.90;;;;;;5094440;28;20048;-57
2023/12/12 01:33:48;;;;;;;2.77;0.70;;;6.60;99.90;;;;;;5094842;28;20044;-57
2023/12/12 01:36:13;;;;;;;;;;;6.60;99.90;;;;;;5094897;28;20044;-57
2023/12/12 01:38:39;;;;;;;2.50;0.52;;;6.60;99.90;;;;;;5094275;28;19920;-57
2023/12/12 01:41:05;;;;;;;1.83;0.70;;;6.50;99.90;;;;;;5094937;28;20082;-57
2023/12/12 01:43:32;;;;;;;4.85;1.15;;;6.50;99.90;;;;;;5093319;28;20044;-57
2023/12/12 01:46:06;;;;;;;1.83;0.80;;;6.50;99.90;;;;;;5094434;28;20169;-57
2023/12/12 01:48:32;;;;;;;4.53;0.80;;;6.50;99.90;;;;;;5094480;28;20051;-57
2023/12/12 01:50:59;;;;;;;4.22;1.02;;;6.40;99.90;;;;;;5094263;28;20050;-57
2023/12/12 01:53:46;;;;;;;2.70;0.70;;;6.40;99.90;;;;;;5094122;28;20051;-57
2023/12/12 01:56:13;;;;;;;4.53;0.77;;;6.40;99.90;;;;;;5093629;28;20105;-57
2023/12/12 01:58:41;;;;;;;2.75;0.52;;;6.30;99.90;;;;;;5094252;28;20040;-57
2023/12/12 02:01:07;;;;;;;2.97;0.63;;;6.30;99.90;;;;;;5094175;28;20043;-57
2023/12/12 02:03:35;;;;;;;4.68;1.48;;;6.30;99.90;;;;;;5093920;28;20044;-57
2023/12/12 02:06:02;;;;;;;2.65;0.60;;;6.30;99.90;;;;;;5093930;28;20550;-57
2023/12/12 02:08:28;;;;;;;2.80;0.52;;;6.20;99.90;;;;;;5093381;28;20106;-57
2023/12/12 02:10:55;;;;;;;3.55;0.60;;;6.10;99.90;;;;;;5094010;28;20101;-57
2023/12/12 02:13:21;;;;;;;5.18;0.82;;;6.10;99.90;;;;;;5094052;28;20044;-57
2023/12/12 02:15:47;;;;;;;4.27;0.60;;;6.10;99.90;;;;;;5093209;28;20094;-57
2023/12/12 02:18:16;;;;;;;2.92;0.65;;;6.10;99.90;;;;;;5093849;28;20274;-57
2023/12/12 02:20:42;;;;;;;4.95;1.05;;;6.00;99.90;;;;;;5093943;28;20043;-57
2023/12/12 02:23:08;;;;;;;6.15;0.90;;;6.00;99.90;;;;;;5092937;28;20052;-57
2023/12/12 02:25:35;;;;;;;3.03;1.07;;;6.00;99.90;;;;;;5094094;28;20044;-57
2023/12/12 02:28:02;;;;;;;1.73;0.60;;;6.00;99.90;;;;;;5075897;28;20282;-57
2023/12/12 02:30:28;;;;;;;;;;;5.90;99.90;;;;;;5094127;28;20105;-57
2023/12/12 02:32:54;;;;;;;6.93;1.17;;;5.90;99.90;;;;;;5093489;28;20016;-57
2023/12/12 02:35:19;;;;;;;2.37;0.80;;;5.90;99.90;;;;;;5092704;28;20148;-57
2023/12/12 02:37:45;;;;;;;5.13;0.87;;;5.90;99.90;;;;;;5093765;28;20044;-57
2023/12/12 02:40:11;;;;;;;3.67;0.87;;;5.80;99.90;;;;;;5093634;28;20080;-57
2023/12/12 02:42:42;;;;;;;2.47;0.77;;;5.80;99.90;;;;;;5092534;28;20079;-57
2023/12/12 02:45:08;;;;;;;5.45;0.90;;;5.80;99.90;;;;;;5093738;28;20099;-57
2023/12/12 02:47:34;;;;;;;4.55;0.98;;;5.70;99.90;;;;;;5092358;28;20044;-57
2023/12/12 02:49:59;;;;;;;2.83;0.73;;;5.80;99.90;;;;;;5093566;28;20036;-57
2023/12/12 02:52:25;;;;;;;4.90;0.90;;;5.70;99.90;;;;;;5092311;28;20122;-57
2023/12/12 02:54:51;;;;;;;3.47;1.00;;;5.70;99.90;;;;;;5093563;28;20055;-57
2023/12/12 02:57:16;;;;;;;3.30;1.07;;;5.70;99.90;;;;;;5093492;28;20048;-57
2023/12/12 02:59:42;;;;;;;4.67;1.30;;;5.70;99.90;;;;;;5093540;28;20399;-57
2023/12/12 03:02:08;;;;;;;3.57;1.07;;;5.70;99.90;;;;;;5093370;28;20048;-57
2023/12/12 03:04:33;;;;;;;3.67;0.97;;;5.70;99.90;;;;;;5093608;28;20181;-57
2023/12/12 03:06:59;;;;;;;4.33;1.07;;;5.70;99.90;;;;;;5093632;28;20048;-57
2023/12/12 03:09:24;;;;;;;3.43;1.10;;;5.80;99.90;;;;;;5093306;28;20048;-56
2023/12/12 03:11:52;;;;;;;2.40;0.87;;;5.80;99.90;;;;;;5092754;28;20548;-57
2023/12/12 03:14:18;;;;;;;2.58;0.88;;;5.70;99.90;;;;;;5093212;28;20048;-57
2023/12/12 03:16:44;;;;;;;2.50;1.00;;;5.70;99.90;;;;;;5093244;28;20043;-57
2023/12/12 03:19:10;;;;;;;5.30;1.10;;;5.70;99.90;;;;;;5093411;28;20628;-57
2023/12/12 03:21:35;;;;;;;4.10;1.00;;;5.80;99.90;;;;;;5093385;28;20036;-57
2023/12/12 03:24:01;;;;;;;2.60;0.70;;;5.80;99.90;;;;;;5093374;28;20074;-57
2023/12/12 03:26:27;;;;;;;2.33;0.80;;;5.80;99.90;;;;;;5095213;28;20052;-57
2023/12/12 03:28:52;;;;;;;3.67;0.80;;;5.80;99.90;;;;;;5079088;28;20052;-57
2023/12/12 03:31:18;;;;;;;1.97;0.90;;;5.80;99.90;;;;;;5096696;28;20495;-57
2023/12/12 03:33:43;;;;;;;3.57;0.77;;;5.90;99.90;;;;;;5096999;28;20108;-57
2023/12/12 03:36:09;;;;;;;5.63;0.90;;;5.90;99.90;;;;;;5095794;28;20169;-57
2023/12/12 03:38:35;;;;;;;3.60;0.97;;;5.90;99.90;;;;;;5096899;28;20070;-57
2023/12/12 03:41:01;;;;;;;1.47;0.70;;;5.90;99.90;;;;;;5096857;28;20740;-57
2023/12/12 03:43:27;;;;;;;3.13;0.80;;;5.90;99.90;;;;;;5096856;28;20047;-57
2023/12/12 03:45:52;;;;;;;3.07;0.83;;;5.90;99.90;;;;;;5096531;28;20278;-57
2023/12/12 03:48:18;;;;;;;5.13;0.70;;;5.80;99.90;;;;;;5096713;28;20048;-57
2023/12/12 03:50:44;;;;;;;5.63;0.83;;;5.90;99.90;;;;;;5095603;28;20054;-57
2023/12/12 03:53:09;;;;;;;4.17;1.17;;;5.80;99.90;;;;;;5096676;28;20079;-57
2023/12/12 03:55:35;;;;;;;3.33;0.83;;;5.80;99.90;;;;;;5096569;28;20047;-57
2023/12/12 03:58:01;;;;;;;2.00;0.70;;;5.80;99.90;;;;;;5096673;28;20044;-56
2023/12/12 04:00:27;;;;;;;2.40;0.70;;;5.90;99.90;;;;;;5096187;28;20398;-56
2023/12/12 04:02:52;;;;;;;6.23;0.90;;;5.90;99.90;;;;;;5096503;28;20044;-57
2023/12/12 04:05:18;;;;;;;3.70;0.77;;;5.90;99.90;;;;;;5094989;28;20040;-56
2023/12/12 04:07:44;;;;;;;2.17;0.73;;;5.90;99.90;;;;;;5096304;28;20090;-57
2023/12/12 04:10:10;;;;;;;4.10;1.07;;;5.90;99.90;;;;;;5096217;28;20092;-56
2023/12/12 04:12:36;;;;;;;2.70;0.80;;;5.90;99.90;;;;;;5096331;28;20048;-57
2023/12/12 04:15:03;;;;;;;3.20;0.85;;;5.90;99.90;;;;;;5096018;28;20465;-56
2023/12/12 04:17:30;;;;;;;4.03;1.13;;;5.90;99.90;;;;;;5096202;28;20079;-57
2023/12/12 04:19:56;;;;;;;3.15;0.70;;;5.90;99.90;;;;;;5096077;28;20047;-56
2023/12/12 04:22:22;;;;;;;2.43;0.77;;;5.90;99.90;;;;;;5078431;28;20052;-57
2023/12/12 04:24:47;;;;;;;3.30;0.60;;;5.90;99.90;;;;;;5095996;28;20278;-56
2023/12/12 04:27:13;;;;;;;3.30;1.10;;;6.00;99.90;;;;;;5096029;28;20531;-56
2023/12/12 04:29:39;;;;;;;3.50;0.80;;;5.90;99.90;;;;;;5095568;28;20044;-56
2023/12/12 04:32:05;;;;;;;4.63;1.00;;;6.00;99.90;;;;;;5095392;28;20048;-56
2023/12/12 04:34:32;;;;;;;3.57;1.00;;;6.00;99.90;;;;;;5096196;28;20089;-57
2023/12/12 04:36:59;;;;;;;3.67;0.68;;;6.00;99.90;;;;;;5095289;28;20040;-56
2023/12/12 04:39:25;;;;;;;5.32;0.80;;;5.90;99.90;;;;;;5095407;28;20083;-56
2023/12/12 04:41:51;;;;;;;3.38;0.82;;;5.90;99.90;;;;;;5095498;28;20048;-56
2023/12/12 04:44:16;;;;;;;2.87;0.60;;;5.90;99.90;;;;;;5095517;28;20052;-56
2023/12/12 04:46:42;;;;;;;2.73;0.80;;;5.90;99.90;;;;;;5095617;28;20433;-56
2023/12/12 04:49:08;;;;;;;4.67;0.70;;;5.90;99.90;;;;;;5094332;28;20044;-56
2023/12/12 04:51:33;;;;;;;1.73;0.63;;;5.90;99.90;;;;;;5095578;28;20040;-56
2023/12/12 04:53:59;;;;;;;3.60;0.93;;;5.90;99.90;;;;;;5095204;28;20044;-56
2023/12/12 04:56:25;;;;;;;3.37;0.73;;;5.90;99.90;;;;;;5095394;28;20083;-56
2023/12/12 04:58:51;;;;;;;2.20;0.70;;;5.90;99.90;;;;;;5095115;28;20121;-56
2023/12/12 05:01:18;;;;;;;3.40;0.97;;;5.90;99.90;;;;;;5095641;28;20428;-56
2023/12/12 05:03:44;;;;;;;2.55;0.80;;;6.00;99.90;;;;;;5095388;28;20365;-56
2023/12/12 05:06:10;;;;;;;1.92;0.90;;;6.00;99.90;;;;;;5095135;28;20044;-56
2023/12/12 05:08:36;;;;;;;3.92;1.38;;;6.00;99.90;;;;;;5077252;28;20047;-56
2023/12/12 05:11:02;;;;;;;4.23;0.63;;;6.00;99.90;;;;;;5094800;28;20056;-56
2023/12/12 05:13:27;;;;;;;2.57;0.70;;;6.00;99.90;;;;;;5095014;28;20043;-56
2023/12/12 05:15:53;;;;;;;3.83;1.43;;;6.00;99.90;;;;;;5095121;28;20274;-56
2023/12/12 05:18:19;;;;;;;2.72;0.75;;;6.00;99.90;;;;;;5094926;28;20044;-56
2023/12/12 05:20:45;;;;;;;2.50;1.20;;;6.00;99.90;;;;;;5095085;28;20046;-56
2023/12/12 05:23:11;;;;;;;2.90;0.63;;;6.00;99.90;;;;;;5094736;28;20365;-56
2023/12/12 05:25:37;;;;;;;6.35;1.05;;;6.00;99.90;;;;;;5094717;28;20465;-56
2023/12/12 05:28:03;;;;;;;3.87;0.83;;;6.00;99.90;;;;;;5093567;28;20131;-56
2023/12/12 05:30:29;;;;;;;4.53;1.00;;;6.00;99.90;;;;;;5094630;28;20052;-56
2023/12/12 05:32:54;;;;;;;2.90;0.87;;;6.10;99.90;;;;;;5094757;28;20040;-56
2023/12/12 05:35:20;;;;;;;3.73;1.00;;;6.00;99.90;;;;;;5094732;28;20098;-56
2023/12/12 05:37:46;;;;;;;3.23;0.90;;;6.00;99.90;;;;;;5094645;28;20575;-56
2023/12/12 05:40:14;;;;;;;4.33;1.00;;;6.10;99.90;;;;;;5094382;28;20044;-56
2023/12/12 05:42:43;;;;;;;3.83;1.17;;;6.10;99.90;;;;;;5094252;28;20471;-56
2023/12/12 05:45:09;;;;;;;5.38;1.00;;;6.10;99.90;;;;;;5093270;28;20094;-56
2023/12/12 05:47:35;;;;;;;3.15;0.88;;;6.10;99.90;;;;;;5094806;28;20131;-56
2023/12/12 05:50:02;;;;;;;4.50;1.20;;;6.10;99.90;;;;;;5094321;28;20123;-56
2023/12/12 05:52:30;;;;;;;;;;;6.10;99.90;;;;;;5094651;28;20077;-56
2023/12/12 05:54:56;;;;;;;3.63;0.95;;;6.10;99.90;;;;;;5094231;28;19963;-56
2023/12/12 05:57:21;;;;;;;3.13;1.00;;;6.10;99.90;;;;;;5093162;28;20095;-56
2023/12/12 05:59:48;;;;;;;2.63;1.07;;;6.10;99.90;;;;;;5094251;28;20524;-56
2023/12/12 06:02:14;;;;;;;2.58;0.95;;;6.10;99.90;;;;;;5094207;28;20109;-56
2023/12/12 06:04:39;;;;;;;3.83;0.93;;;6.10;99.90;;;;;;5094427;28;20047;-56
2023/12/12 06:07:05;;;;;;;2.40;0.87;;;6.10;99.90;;;;;;5094009;28;20043;-56
2023/12/12 06:09:32;;;;;;;4.15;1.38;;;6.00;99.90;;;;;;5093747;28;20048;-56
2023/12/12 06:12:00;;;;;;;2.80;1.05;;;6.00;99.90;;;;;;5093970;28;20418;-56
2023/12/12 06:14:26;;;;;;;4.75;1.15;;;6.00;99.90;;;;;;5094028;28;20071;-56
2023/12/12 06:16:52;;;;;;;3.80;1.50;;;5.90;99.90;;;;;;5093008;28;20398;-56
2023/12/12 06:19:18;;;;;;;4.03;1.10;;;5.90;99.90;;;;;;5093897;28;20353;-56
2023/12/12 06:21:43;;;;;;;3.63;1.10;;;5.90;99.90;;;;;;5093853;28;20371;-56
2023/12/12 06:24:09;;;;;;;2.93;1.07;;;5.80;99.90;;;;;;5092792;28;20048;-56
2023/12/12 06:26:37;;;;;;;4.70;1.20;;;5.70;99.90;;;;;;5093521;28;20411;-56
2023/12/12 06:29:03;;;;;;;3.35;1.10;;;5.70;99.90;;;;;;5093598;28;20052;-56
2023/12/12 06:31:28;;;;;;;2.50;0.83;;;5.60;99.90;;;;;;5093606;28;20126;-56
2023/12/12 06:33:54;;;;;;;4.27;1.10;;;5.50;99.90;;;;;;5093834;28;20048;-55
2023/12/12 06:36:20;;;;;;;4.87;1.13;;;5.40;99.90;;;;;;5092387;28;20083;-56
2023/12/12 06:38:46;;;;;;;4.73;0.90;;;5.40;99.90;;;;;;5093495;28;20127;-55
2023/12/12 06:41:11;;;;;;;3.77;1.10;;;5.30;99.90;;;;;;5092266;28;20051;-55
2023/12/12 06:43:37;;;;;;;4.17;1.37;;;5.30;99.90;;;;;;5093777;28;20055;-56
2023/12/12 06:46:03;;;;;;;2.70;1.07;;;5.20;99.90;;;;;;5093658;28;20406;-56
2023/12/12 06:48:29;;;;;;;4.03;1.43;;;5.20;99.90;;;;;;5092999;28;20052;-55
2023/12/12 06:50:54;;;;;;;4.20;1.47;;;5.10;99.90;;;;;;5093830;28;20048;-56
2023/12/12 06:53:20;;;;;;;5.10;1.50;;;5.00;99.90;;;;;;5093549;28;20451;-56
2023/12/12 06:55:47;;;;;;;5.67;1.40;;;4.90;99.90;;;;;;5093438;28;20130;-56
2023/12/12 06:58:16;;;;;;;5.03;1.58;;;4.90;99.90;;;;;;5092595;28;20395;-55
2023/12/12 07:00:42;;;;;;;5.78;1.67;;;4.90;99.90;;;;;;5094290;28;20383;-56
2023/12/12 07:03:10;;;;;;;4.15;1.60;;;4.80;99.90;;;;;;5097597;28;20116;-55
2023/12/12 07:05:36;;;;;;;5.35;2.08;;;4.80;99.90;;;;;;5096580;28;20051;-55
2023/12/12 07:08:03;;;;;;;5.30;1.98;;;4.80;99.90;;;;;;5096235;28;20487;-56
2023/12/12 07:10:30;;;;;;;6.25;2.00;;;4.80;99.90;;;;;;5097140;28;20471;-55
2023/12/12 07:12:56;;;;;;;7.13;2.08;;;4.80;99.90;;;;;;5097275;28;20467;-55
2023/12/12 07:15:23;;;;;;;5.90;1.60;;;4.80;99.90;;;;;;5097289;28;20123;-56
2023/12/12 07:17:49;;;;;;;;;;;4.80;99.90;;;;;;5097635;28;20380;-56
2023/12/12 07:20:14;;;;;;;6.13;2.20;;;4.80;99.90;;;;;;5097258;28;19927;-55
2023/12/12 07:22:40;;;;;;;5.27;2.50;;;4.80;99.90;;;;;;5097085;28;20046;-56
2023/12/12 07:25:06;;;;;;;9.13;2.63;;;4.80;99.90;;;;;;5097246;28;20052;-55
2023/12/12 07:27:32;;;;;;;6.75;2.70;;;4.90;99.90;;;;;;5097418;28;20083;-54
2023/12/12 07:29:58;;;;;;;15.90;10.80;;;4.90;99.90;;;;;;5096941;28;20489;-56
2023/12/12 07:32:26;;;;;;;6.13;2.73;;;4.90;99.90;;;;;;5097282;28;20074;-55
2023/12/12 07:34:52;;;;;;;6.25;2.22;;;4.90;99.90;;;;;;5096862;28;20048;-55
2023/12/12 07:37:18;;;;;;;7.17;2.67;;;4.80;99.90;;;;;;5095828;28;20130;-55
2023/12/12 07:39:43;;;;;;;7.13;2.90;;;4.80;99.90;;;;;;5096913;28;20129;-55
2023/12/12 07:42:09;;;;;;;8.37;2.97;;;4.80;99.90;;;;;;5097057;28;20048;-55
2023/12/12 07:44:35;;;;;;;7.17;3.53;;;4.80;99.90;;;;;;5097024;28;20079;-55
2023/12/12 07:47:01;;;;;;;7.03;3.27;;;4.80;99.90;;;;;;5095630;28;20479;-55
2023/12/12 07:49:30;;;;;;;8.80;3.45;;;4.90;99.90;;;;;;5096500;28;20056;-55
2023/12/12 07:51:56;;;;;;;7.90;3.20;;;4.90;99.90;;;;;;5096430;28;20048;-55
2023/12/12 07:54:21;;;;;;;7.50;3.10;;;4.90;99.90;;;;;;5096682;28;20048;-55
2023/12/12 07:56:47;;;;;;;8.40;3.57;;;4.90;99.90;;;;;;5096525;28;20061;-55
2023/12/12 07:59:13;;;;;;;10.33;4.10;;;4.90;99.90;;;;;;5096549;28;20040;-55
2023/12/12 08:01:39;;;;;;;6.30;2.93;;;4.90;99.90;;;;;;5095518;28;20372;-55
2023/12/12 08:04:08;;;;;;;6.95;3.60;;;4.90;99.90;;;;;;5096504;28;20052;-55
2023/12/12 08:06:33;;;;;;;8.00;4.22;;;4.90;99.90;;;;;;5096164;28;20479;-55
2023/12/12 08:08:59;;;;;;;7.67;3.90;;;4.90;99.90;;;;;;5096543;28;20069;-56
2023/12/12 08:11:27;;;;;;;6.57;3.40;;;4.90;99.90;;;;;;5096397;28;20072;-55
2023/12/12 08:13:56;;;;;;;8.80;3.53;;;5.00;99.90;;;;;;5095132;28;20063;-56
2023/12/12 08:16:23;;;;;;;6.88;3.55;;;5.00;99.90;;;;;;5096009;28;20052;-55
2023/12/12 08:18:49;;;;;;;7.20;3.25;;;5.00;99.90;;;;;;5096111;28;20040;-54
2023/12/12 08:21:17;;;;;;;11.05;3.78;;;5.00;99.90;;;;;;5096062;28;20036;-54
2023/12/12 08:23:43;;;;;;;8.40;3.60;;;5.00;99.90;;;;;;5096173;28;20052;-55
2023/12/12 08:26:10;;;;;;;7.73;3.70;;;5.10;99.90;;;;;;5096116;28;20040;-54
2023/12/12 08:28:36;;;;;;;6.07;2.90;;;5.10;99.90;;;;;;5096308;28;20052;-55
2023/12/12 08:31:02;;;;;;;10.33;3.90;;;5.10;99.90;;;;;;5095929;28;20062;-55
2023/12/12 08:33:27;;;;;;;6.97;3.23;;;5.10;99.90;;;;;;5094679;28;20346;-55
2023/12/12 08:35:53;;;;;;;6.37;3.17;;;5.10;99.90;;;;;;5095618;28;20040;-55
2023/12/12 08:38:19;;;;;;;8.77;3.80;;;5.20;99.90;;;;;;5095871;28;20074;-55
2023/12/12 08:40:44;;;;;;;8.00;3.73;;;5.10;99.90;;;;;;5096057;28;20051;-54
2023/12/12 08:43:10;;;;;;;7.87;3.70;;;5.20;99.90;;;;;;5094735;28;20051;-55
2023/12/12 08:45:36;;;;;;;8.90;4.10;;;5.20;99.90;;;;;;5095698;28;20502;-54
2023/12/12 08:48:02;;;;;;;8.63;4.40;;;5.20;99.90;;;;;;5094540;28;20445;-54
2023/12/12 08:50:28;;;;;;;8.07;3.83;;;5.20;99.90;;;;;;5095119;28;20040;-55
2023/12/12 08:52:53;;;;;;;7.87;3.73;;;5.10;99.90;;;;;;5095474;28;20091;-55
2023/12/12 08:55:19;;;;;;;7.93;3.97;;;5.20;99.90;;;;;;5094196;28;20044;-54
2023/12/12 08:57:46;;;;;;;9.63;4.87;;;5.20;99.90;;;;;;5095393;28;20048;-55
2023/12/12 09:00:12;;;;;;;10.85;4.95;;;5.20;99.90;;;;;;5095365;28;20052;-55
2023/12/12 09:02:39;;;;;;;9.55;5.32;;;5.20;99.90;;;;;;5095138;28;20043;-54
2023/12/12 09:05:06;;;;;;;10.02;4.75;;;5.20;99.90;;;;;;5095243;28;20051;-54
2023/12/12 09:07:33;;;;;;;10.70;5.13;;;5.30;99.90;;;;;;5095010;28;20548;-54
2023/12/12 09:10:02;;;;;;;;;;;5.30;99.90;;;;;;5095395;28;20048;-55
2023/12/12 09:12:28;;;;;;;9.38;4.75;;;5.40;99.90;;;;;;5095166;28;19927;-54
2023/12/12 09:14:53;;;;;;;9.23;4.87;;;5.40;99.90;;;;;;5094903;28;20048;-54
2023/12/12 09:17:19;;;;;;;10.50;5.83;;;5.40;99.90;;;;;;5094093;28;20425;-55
2023/12/12 09:19:45;;;;;;;11.97;5.43;;;5.50;99.90;;;;;;5094278;28;20399;-54
2023/12/12 09:22:11;;;;;;;11.80;5.70;;;5.50;99.90;;;;;;5094928;28;20040;-54
2023/12/12 09:24:36;;;;;;;9.60;4.60;;;5.50;99.90;;;;;;5094442;28;20051;-54
2023/12/12 09:27:03;;;;;;;10.53;5.73;;;5.50;99.90;;;;;;5094038;28;20044;-54
2023/12/12 09:29:29;;;;;;;12.80;5.93;;;5.50;99.90;;;;;;5094652;28;20056;-53
2023/12/12 09:31:56;;;;;;;11.93;4.87;;;5.50;99.90;;;;;;5094556;28;20051;-53
2023/12/12 09:34:23;;;;;;;;;;;5.50;99.90;;;;;;5095018;28;20415;-53
2023/12/12 09:36:51;;;;;;;20.00;6.38;;;5.50;99.90;;;;;;5094784;28;19920;-54
2023/12/12 09:39:17;;;;;;;11.38;5.80;;;5.60;99.90;;;;;;5094585;28;20098;-53
2023/12/12 09:41:49;;;;;;;11.75;5.22;;;5.60;99.90;;;;;;5094608;28;20472;-53
2023/12/12 09:44:17;;;;;;;15.15;5.68;;;5.60;99.90;;;;;;5094619;28;20127;-54
2023/12/12 09:46:44;;;;;;;16.05;6.30;;;5.60;99.90;;;;;;5094342;28;20108;-50
2023/12/12 09:49:11;;;;;;;9.48;4.88;;;5.60;99.90;;;;;;5094289;28;20482;-52
2023/12/12 09:51:50;;;;;;;10.73;5.07;;;5.60;99.90;;;;;;5094389;28;20380;-53
2023/12/12 09:54:17;;;;;;;13.30;5.80;;;5.50;99.90;;;;;;5094471;28;20077;-53
2023/12/12 09:56:44;;;;;;;;;;;5.50;99.90;;;;;;5094798;28;20126;-53
2023/12/12 09:59:10;;;;;;;11.45;5.95;;;5.50;99.90;;;;;;5094225;28;19920;-54
2023/12/12 10:01:36;;;;;;;13.17;6.00;;;5.50;99.90;;;;;;5093375;28;20051;-53
2023/12/12 10:04:06;;;;;;;12.50;5.47;;;5.50;99.90;;;;;;5094234;28;20105;-53
2023/12/12 10:06:49;;;;;;;12.77;5.88;;;5.50;99.90;;;;;;5093026;28;20077;-51
2023/12/12 10:09:15;;;;;;;11.85;5.82;;;5.60;99.90;;;;;;5094238;28;20036;-52
2023/12/12 10:11:41;;;;;;;10.97;6.23;;;5.50;99.90;;;;;;5092805;28;20056;-52
2023/12/12 10:14:08;;;;;;;10.03;5.07;;;5.50;99.90;;;;;;5094053;28;20066;-61
2023/12/12 10:16:34;;;;;;;12.68;5.78;;;5.60;99.90;;;;;;5093963;28;20056;-53
2023/12/12 10:19:04;;;;;;;13.90;5.80;;;5.60;99.90;;;;;;5093838;28;20044;-53
2023/12/12 10:21:30;;;;;;;12.73;5.82;;;5.60;99.90;;;;;;5094084;28;20043;-54
2023/12/12 10:23:56;;;;;;;13.32;6.35;;;5.60;99.90;;;;;;5093762;28;20483;-54
2023/12/12 10:26:29;;;;;;;11.67;5.07;;;5.60;99.90;;;;;;5093647;28;20040;-54
2023/12/12 10:29:00;;;;;;;13.95;6.22;;;5.60;99.90;;;;;;5093887;28;20399;-53
2023/12/12 10:31:26;;;;;;;10.88;5.75;;;5.50;99.90;;;;;;5093752;28;20040;-53
2023/12/12 10:33:55;;;;;;;10.85;5.55;;;5.60;99.90;;;;;;5093854;28;20048;-53
2023/12/12 10:36:21;;;;;;;12.73;5.60;;;5.50;99.90;;;;;;5093081;28;20055;-52
2023/12/12 10:38:47;;;;;;;12.98;5.57;;;5.50;99.90;;;;;;5093550;28;20051;-51
2023/12/12 10:41:18;;;;;;;10.77;5.40;;;5.50;99.90;;;;;;5093501;28;20078;-53
2023/12/12 10:43:45;;;;;;;9.40;4.13;;;5.50;99.90;;;;;;5093903;28;20044;-53
2023/12/12 10:46:13;;;;;;;15.93;4.82;;;5.50;99.90;;;;;;5094112;28;20044;-53
2023/12/12 10:48:44;;;;;;;10.90;5.13;;;5.50;99.90;;;;;;5093671;28;20044;-53
2023/12/12 10:51:15;;;;;;;10.57;4.60;;;5.40;99.90;;;;;;5093732;28;20044;-53
2023/12/12 10:53:42;;;;;;;8.80;4.07;;;5.40;99.90;;;;;;5092499;28;20201;-53
2023/12/12 10:56:09;;;;;;;;;;;5.40;99.90;;;;;;5094035;28;20173;-53
2023/12/12 10:58:37;;;;;;;11.10;5.97;;;5.40;99.90;;;;;;5093959;28;19924;-53
2023/12/12 11:01:05;;;;;;;13.95;5.50;;;5.40;99.90;;;;;;5092861;28;20278;-52
2023/12/12 11:03:31;;;;;;;11.38;4.95;;;5.50;99.90;;;;;;5092451;28;20048;-54
2023/12/12 11:05:58;;;;;;;10.97;5.87;;;5.50;99.90;;;;;;5092455;28;20102;-53
2023/12/12 11:08:24;;;;;;;;;;;5.50;99.90;;;;;;5093949;28;20048;-53
2023/12/12 11:10:51;;;;;;;15.45;5.40;;;5.40;99.90;;;;;;5093547;28;19927;-54
2023/12/12 11:13:19;;;;;;;19.02;6.47;;;5.50;99.90;;;;;;5093415;28;20060;-53
2023/12/12 11:15:46;;;;;;;17.55;5.70;;;5.50;99.90;;;;;;5093462;28;20048;-54
2023/12/12 11:18:14;;;;;;;14.52;5.85;;;5.40;99.90;;;;;;5093284;28;20044;-52
2023/12/12 11:20:41;;;;;;;13.25;6.30;;;5.40;99.90;;;;;;5093206;28;20048;-54
2023/12/12 11:23:07;;;;;;;;;;;5.40;99.90;;;;;;5093792;28;20097;-54
2023/12/12 11:25:35;;;;;;;14.00;6.32;;;5.40;99.90;;;;;;5093342;28;19920;-53
2023/12/12 11:28:02;;;;;;;15.32;5.97;;;5.40;99.90;;;;;;5093259;28;20063;-54
2023/12/12 11:30:33;;;;;;;;;;;5.50;99.90;;;;;;5093643;28;20048;-54
2023/12/12 11:32:58;;;;;;;18.33;6.63;;;5.50;99.90;;;;;;5093049;28;20061;-53
2023/12/12 11:35:29;;;;;;;13.20;7.03;;;5.30;99.90;;;;;;5092809;28;20498;-54
2023/12/12 11:38:00;;;;;;;13.13;6.40;;;5.40;99.90;;;;;;5092207;28;20040;-55
2023/12/12 11:40:27;;;;;;;14.43;7.05;;;5.40;99.90;;;;;;5093348;28;20106;-55
2023/12/12 11:42:55;;;;;;;16.42;8.18;;;5.50;99.90;;;;;;5092143;28;20052;-54
2023/12/12 11:45:34;;;;;;;16.95;8.57;;;5.50;99.90;;;;;;5093150;28;20051;-54
2023/12/12 11:48:05;;;;;;;15.13;7.72;;;5.50;99.90;;;;;;5095750;28;20047;-54
2023/12/12 11:50:31;;;;;;;17.33;8.45;;;5.50;99.90;;;;;;5097053;28;20036;-54
2023/12/12 11:52:57;;;;;;;17.35;8.63;;;5.60;99.90;;;;;;5096728;28;20051;-54
2023/12/12 11:55:31;;;;;;;19.77;8.43;;;5.50;99.90;;;;;;5079097;28;20044;-54
2023/12/12 11:58:02;;;;;;;18.75;8.32;;;5.50;99.90;;;;;;5096544;28;20090;-54
2023/12/12 12:00:37;;;;;;;15.27;8.25;;;5.60;99.90;;;;;;5096287;28;20101;-54
2023/12/12 12:03:04;;;;;;;17.58;8.38;;;5.50;99.90;;;;;;5096827;28;20135;-54
2023/12/12 12:05:30;;;;;;;14.18;8.30;;;5.50;99.90;;;;;;5095608;28;20412;-53
2023/12/12 12:07:56;;;;;;;14.48;7.90;;;5.50;99.90;;;;;;5096366;28;20048;-54
2023/12/12 12:10:24;;;;;;;16.57;8.83;;;5.50;99.90;;;;;;5096347;28;20457;-52
2023/12/12 12:12:57;;;;;;;19.92;9.05;;;5.50;99.90;;;;;;5096071;28;20048;-54
2023/12/12 12:15:23;;;;;;;33.65;9.75;;;5.50;99.90;;;;;;5096282;28;20075;-54
2023/12/12 12:17:49;;;;;;;19.27;9.90;;;5.50;99.90;;;;;;5096224;28;20486;-54
2023/12/12 12:20:15;;;;;;;20.97;10.07;;;5.50;99.90;;;;;;5096293;28;20071;-53
2023/12/12 12:22:40;;;;;;;19.67;10.37;;;5.50;99.90;;;;;;5096012;28;20707;-54
2023/12/12 12:25:07;;;;;;;19.50;10.53;;;5.50;99.90;;;;;;5096035;28;20040;-53
2023/12/12 12:27:46;;;;;;;21.90;10.27;;;5.60;99.90;;;;;;5095802;28;20403;-53
2023/12/12 12:30:12;;;;;;;21.25;10.32;;;5.60;99.90;;;;;;5096054;28;20089;-54
2023/12/12 12:32:37;;;;;;;23.53;12.30;;;5.60;99.90;;;;;;5095892;28;20503;-54
2023/12/12 12:35:07;;;;;;;18.50;10.57;;;5.60;99.90;;;;;;5095899;28;20040;-54
2023/12/12 12:37:34;;;;;;;23.20;11.18;;;5.60;99.90;;;;;;5095689;28;20126;-53
2023/12/12 12:40:04;;;;;;;24.65;10.70;;;5.60;99.90;;;;;;5095786;28;20510;-54
2023/12/12 12:42:37;;;;;;;24.15;10.77;;;5.70;99.90;;;;;;5095743;28;20048;-54
2023/12/12 12:45:05;;;;;;;23.83;11.80;;;5.70;99.90;;;;;;5096219;28;20062;-53
2023/12/12 12:47:31;;;;;;;22.42;10.93;;;5.70;99.90;;;;;;5095795;28;20048;-54
2023/12/12 12:49:58;;;;;;;19.00;9.95;;;5.80;99.90;;;;;;5095492;28;20511;-54
2023/12/12 12:52:24;;;;;;;;;;;5.80;99.90;;;;;;5095847;28;20043;-53
2023/12/12 12:54:50;;;;;;;21.67;10.32;;;5.80;99.90;;;;;;5095555;28;19924;-53